Conon Bridge, United Kingdom
Current Conditions -  °F | °C
As of 1:20 AM on Saturday 29 Nov 2014 (Local Time) from EGPE Reporting Station
Moderate Fog Moderate Fog  
Wind Chill: 36°   Ceiling: Unl
Heat Index: 36°   Visibility: 0.4mi
Dew Point: 36°   Wind: 0mph
Humidity: 100%   Direction: NA
Pressure: 29.88"   Gusts: NA
Location:  57.57°N, 4.44°W
Report Text: EGPE 290120Z AUTO 00000KT 0650 FG NCD 02/02 Q1012
Loading
Personal Weather Stations






























Interactive Weather Map New forecast layout! Learn more

10-Day Weather Forecast

Advertisements
Track Severe Weather on mobile